createdAt,value
2018-09-04T00:00:09.398Z,100989.19
2018-09-04T00:00:47.644Z,100988.64
2018-09-04T00:01:25.814Z,100995.38
2018-09-04T00:02:03.925Z,100992.66
2018-09-04T00:02:41.877Z,100994.28
2018-09-04T00:03:19.817Z,100991.31
2018-09-04T00:03:57.739Z,100998.30
2018-09-04T00:04:35.675Z,100998.03
2018-09-04T00:05:13.686Z,100992.91
2018-09-04T00:05:51.829Z,100997.48
2018-09-04T00:06:29.869Z,100997.48
2018-09-04T00:07:07.928Z,100995.61
2018-09-04T00:07:46.219Z,100991.55
2018-09-04T00:08:24.229Z,100997.47
2018-09-04T00:09:02.291Z,101002.84
2018-09-04T00:09:40.393Z,101002.30
2018-09-04T00:10:19.199Z,101008.74
2018-09-04T00:10:57.324Z,101006.87
2018-09-04T00:11:35.466Z,101012.25
2018-09-04T00:12:13.642Z,101013.33
2018-09-04T00:12:51.788Z,101016.28
2018-09-04T00:13:29.968Z,101017.33
2018-09-04T00:14:08.698Z,101015.95
2018-09-04T00:14:46.966Z,101017.56
2018-09-04T00:15:25.321Z,101019.44
2018-09-04T00:16:07.147Z,101021.05
2018-09-04T00:16:45.453Z,101025.36
2018-09-04T00:17:23.707Z,101027.53
2018-09-04T00:18:01.877Z,101029.97
2018-09-04T00:18:40.922Z,101024.31
2018-09-04T00:19:19.179Z,101031.30
2018-09-04T00:19:58.609Z,101038.05
2018-09-04T00:20:37.338Z,101036.70
2018-09-04T00:21:16.137Z,101041.83
2018-09-04T00:21:54.783Z,101037.77
2018-09-04T00:22:33.357Z,101044.50
2018-09-04T00:23:11.767Z,101043.95
2018-09-04T00:23:50.406Z,101043.40
2018-09-04T00:24:30.133Z,101052.58
2018-09-04T00:25:09.006Z,101054.99
2018-09-04T00:25:47.778Z,101055.53
2018-09-04T00:26:26.311Z,101054.99
2018-09-04T00:27:07.847Z,101062.00
2018-09-04T00:27:46.549Z,101062.78
2018-09-04T00:28:25.286Z,101062.23
2018-09-04T00:29:04.381Z,101063.28
2018-09-04T00:29:44.326Z,101066.80
2018-09-04T00:30:23.023Z,101068.13
2018-09-04T00:31:01.769Z,101066.77
2018-09-04T00:31:41.630Z,101068.36
2018-09-04T00:32:20.438Z,101075.38
2018-09-04T00:32:59.084Z,101074.03
2018-09-04T00:33:38.150Z,101078.59
2018-09-04T00:34:17.024Z,101077.78
2018-09-04T00:34:55.716Z,101083.17
2018-09-04T00:35:34.996Z,101085.88
2018-09-04T00:36:14.066Z,101085.33
2018-09-04T00:36:52.773Z,101089.92
2018-09-04T00:37:32.530Z,101088.31
2018-09-04T00:38:11.501Z,101086.96
2018-09-04T00:38:50.326Z,101098.58
2018-09-04T00:39:28.930Z,101096.14
2018-09-04T00:40:07.754Z,101101.52
2018-09-04T00:40:46.420Z,101096.93
2018-09-04T00:41:25.060Z,101096.12
2018-09-04T00:42:46.115Z,101100.42
2018-09-04T00:43:25.381Z,101101.23
2018-09-04T00:44:04.149Z,101103.64
2018-09-04T00:44:42.803Z,101100.38
2018-09-04T00:45:22.338Z,101104.41
2018-09-04T00:46:01.074Z,101109.27
2018-09-04T00:46:39.986Z,101111.40
2018-09-04T00:47:18.898Z,101110.31
2018-09-04T00:47:57.662Z,101113.01
2018-09-04T00:48:36.275Z,101117.58
2018-09-04T00:49:15.356Z,101121.09
2018-09-04T00:49:53.917Z,101120.83
2018-09-04T00:50:33.518Z,101124.33
2018-09-04T00:51:13.807Z,101125.94
2018-09-04T00:51:52.484Z,101127.81
2018-09-04T00:52:30.994Z,101127.83
2018-09-04T00:53:09.954Z,101128.09
2018-09-04T00:53:48.343Z,101130.52
2018-09-04T00:54:27.122Z,101125.36
2018-09-04T00:55:05.849Z,101125.33
2018-09-04T00:55:44.368Z,101126.13
2018-09-04T00:56:22.580Z,101124.49
2018-09-04T00:57:01.248Z,101121.51
2018-09-04T00:57:39.301Z,101122.02
2018-09-04T00:58:17.699Z,101121.73
2018-09-04T00:59:05.665Z,101121.73
2018-09-04T00:59:43.884Z,101123.84
2018-09-04T01:00:26.224Z,101126.23
2018-09-04T01:01:04.310Z,101129.17
2018-09-04T01:01:42.681Z,101127.00
2018-09-04T01:02:20.701Z,101133.19
2018-09-04T01:02:59.697Z,101133.70
2018-09-04T01:03:37.712Z,101130.44
2018-09-04T01:04:15.809Z,101136.62
2018-09-04T01:04:53.733Z,101138.48
2018-09-04T01:05:31.597Z,101138.48
2018-09-04T01:06:10.592Z,101137.95
2018-09-04T01:06:48.597Z,101146.88
2018-09-04T01:07:26.674Z,101148.54
2018-09-04T01:08:05.880Z,101153.42
2018-09-04T01:08:43.980Z,101151.83
2018-09-04T01:09:24.808Z,101157.51
2018-09-04T01:10:02.737Z,101162.69
2018-09-04T01:10:40.715Z,101161.12
2018-09-04T01:11:18.725Z,101163.33
2018-09-04T01:11:56.740Z,101161.74
2018-09-04T01:12:34.924Z,101156.66
2018-09-04T01:13:12.943Z,101161.27
2018-09-04T01:13:50.997Z,101160.50
2018-09-04T01:14:29.120Z,101165.93
2018-09-04T01:15:07.217Z,101164.38
2018-09-04T01:15:45.422Z,101169.77
2018-09-04T01:16:23.493Z,101167.37
2018-09-04T01:17:01.996Z,101171.13
2018-09-04T01:17:40.236Z,101170.88
2018-09-04T01:18:18.288Z,101179.52
2018-09-04T01:18:56.308Z,101174.69
2018-09-04T01:19:34.285Z,101179.25
2018-09-04T01:20:12.204Z,101177.11
2018-09-04T01:20:50.320Z,101178.20
2018-09-04T01:21:28.376Z,101182.26
2018-09-04T01:22:06.516Z,101183.35
2018-09-04T01:22:44.789Z,101178.24
2018-09-04T01:23:22.791Z,101174.99
2018-09-04T01:24:00.899Z,101178.50
2018-09-04T01:24:39.121Z,101176.63
2018-09-04T01:25:17.137Z,101177.19
2018-09-04T01:25:55.213Z,101174.77
2018-09-04T01:26:33.269Z,101175.85
2018-09-04T01:27:11.325Z,101172.63
2018-09-04T01:27:49.442Z,101180.19
2018-09-04T01:28:27.460Z,101182.05
2018-09-04T01:29:05.665Z,101185.52
2018-09-04T01:29:43.609Z,101177.98
2018-09-04T01:30:22.207Z,101185.27
2018-09-04T01:31:00.201Z,101184.73
2018-09-04T01:31:38.141Z,101182.85
2018-09-04T01:32:17.204Z,101182.31
2018-09-04T01:32:55.333Z,101183.94
2018-09-04T01:33:33.403Z,101183.94
2018-09-04T01:34:11.500Z,101177.98
2018-09-04T01:34:49.604Z,101176.37
2018-09-04T01:35:27.743Z,101170.45
2018-09-04T01:36:05.817Z,101170.98
2018-09-04T01:36:43.945Z,101166.95
2018-09-04T01:37:22.096Z,101169.11
2018-09-04T01:38:00.222Z,101167.49
2018-09-04T01:38:38.404Z,101169.92
2018-09-04T01:39:16.336Z,101179.34
2018-09-04T01:39:54.521Z,101176.38
2018-09-04T01:40:32.508Z,101177.73
2018-09-04T01:41:10.607Z,101182.58
2018-09-04T01:41:48.642Z,101184.73
2018-09-04T01:42:26.689Z,101189.58
2018-09-04T01:43:04.666Z,101183.66
2018-09-04T01:43:42.838Z,101188.77
2018-09-04T01:44:20.969Z,101190.66
2018-09-04T01:44:58.964Z,101186.08
2018-09-04T01:45:36.930Z,101184.73
2018-09-04T01:46:15.036Z,101189.58
2018-09-04T01:46:53.041Z,101185.27
2018-09-04T01:47:31.090Z,101185.00
2018-09-04T01:48:09.223Z,101190.92
2018-09-04T01:48:47.190Z,101193.63
2018-09-04T01:49:25.161Z,101188.50
2018-09-04T01:50:03.205Z,101191.19
2018-09-04T01:50:41.247Z,101191.73
2018-09-04T01:51:19.365Z,101191.19
2018-09-04T01:51:57.669Z,101190.39
2018-09-04T01:52:35.698Z,101187.16
2018-09-04T01:53:14.124Z,101192.27
2018-09-04T01:53:52.295Z,101196.31
2018-09-04T01:54:30.357Z,101193.63
2018-09-04T01:55:08.440Z,101192.00
2018-09-04T01:55:46.393Z,101190.92
2018-09-04T01:56:24.598Z,101189.31
2018-09-04T01:57:02.644Z,101194.16
2018-09-04T01:57:40.652Z,101187.43
2018-09-04T01:58:19.961Z,101181.50
2018-09-04T01:58:58.060Z,101185.01
2018-09-04T01:59:36.335Z,101176.92
2018-09-04T02:00:14.482Z,101178.00
2018-09-04T02:00:52.672Z,101176.13
2018-09-04T02:01:30.953Z,101177.73
2018-09-04T02:02:09.077Z,101178.01
2018-09-04T02:02:47.058Z,101176.39
2018-09-04T02:03:25.036Z,101174.21
2018-09-04T02:04:03.014Z,101169.91
2018-09-04T02:04:41.208Z,101169.91
2018-09-04T02:05:19.245Z,101170.71
2018-09-04T02:05:57.162Z,101168.83
2018-09-04T02:06:35.144Z,101169.64
2018-09-04T02:07:13.138Z,101173.67
2018-09-04T02:07:51.195Z,101170.98
2018-09-04T02:08:29.247Z,101169.91
2018-09-04T02:09:07.449Z,101168.02
2018-09-04T02:09:45.476Z,101172.06
2018-09-04T02:10:23.465Z,101172.06
2018-09-04T02:11:01.680Z,101174.22
2018-09-04T02:11:39.691Z,101175.83
2018-09-04T02:12:17.830Z,101176.37
2018-09-04T02:12:55.860Z,101180.95
2018-09-04T02:13:33.904Z,101183.91
2018-09-04T02:14:11.785Z,101178.80
2018-09-04T02:14:49.823Z,101180.41
2018-09-04T02:15:27.985Z,101187.95
2018-09-04T02:16:06.030Z,101190.13
2018-09-04T02:16:44.109Z,101182.32
2018-09-04T02:17:22.156Z,101184.20
2018-09-04T02:18:00.331Z,101182.05
2018-09-04T02:18:38.265Z,101185.01
2018-09-04T02:19:16.260Z,101185.01
2018-09-04T02:19:54.310Z,101180.16
2018-09-04T02:20:32.475Z,101180.42
2018-09-04T02:21:10.577Z,101175.30
2018-09-04T02:21:48.594Z,101171.80
2018-09-04T02:22:26.672Z,101173.95
2018-09-04T02:23:04.707Z,101172.88
2018-09-04T02:23:42.707Z,101171.53
2018-09-04T02:24:20.747Z,101173.69
2018-09-04T02:24:58.681Z,101166.69
2018-09-04T02:25:36.734Z,101165.88
2018-09-04T02:26:14.768Z,101165.34
2018-09-04T02:26:52.727Z,101162.37
2018-09-04T02:27:30.710Z,101161.83
2018-09-04T02:28:08.674Z,101155.09
2018-09-04T02:28:46.735Z,101161.83
2018-09-04T02:29:24.695Z,101165.86
2018-09-04T02:30:02.803Z,101163.47
2018-09-04T02:30:40.833Z,101161.30
2018-09-04T02:31:18.988Z,101162.64
2018-09-04T02:31:56.905Z,101165.87
2018-09-04T02:32:34.967Z,101166.41
2018-09-04T02:33:14.091Z,101163.45
2018-09-04T02:33:52.222Z,101166.67
2018-09-04T02:34:30.341Z,101167.73
2018-09-04T02:35:08.671Z,101166.15
2018-09-04T02:35:46.895Z,101160.21
2018-09-04T02:36:24.909Z,101164.28
2018-09-04T02:37:02.876Z,101158.34
2018-09-04T02:37:40.825Z,101164.53
2018-09-04T02:38:18.845Z,101162.37
2018-09-04T02:38:56.909Z,101163.70
2018-09-04T02:39:34.964Z,101162.36
2018-09-04T02:40:12.970Z,101161.55
2018-09-04T02:40:50.969Z,101161.01
2018-09-04T02:41:29.043Z,101158.86
2018-09-04T02:42:06.970Z,101159.39
2018-09-04T02:42:45.008Z,101161.55
2018-09-04T02:43:23.134Z,101162.90
2018-09-04T02:44:01.126Z,101155.91
2018-09-04T02:44:39.307Z,101158.86
2018-09-04T02:45:17.238Z,101161.84
2018-09-04T02:45:55.277Z,101155.91
2018-09-04T02:46:33.198Z,101160.23
2018-09-04T02:47:11.303Z,101165.89
2018-09-04T02:47:49.335Z,101162.93
2018-09-04T02:48:27.522Z,101159.97
2018-09-04T02:49:05.572Z,101163.72
2018-09-04T02:49:43.494Z,101164.52
2018-09-04T02:50:21.664Z,101167.22
2018-09-04T02:50:59.644Z,101175.58
2018-09-04T02:51:37.744Z,101166.41
2018-09-04T02:52:16.694Z,101172.36
2018-09-04T02:52:54.677Z,101172.88
2018-09-04T02:53:32.625Z,101175.59
2018-09-04T02:54:10.667Z,101172.08
2018-09-04T02:54:48.651Z,101168.84
2018-09-04T02:55:26.747Z,101173.14
2018-09-04T02:56:04.744Z,101167.74
2018-09-04T02:56:42.820Z,101172.03
2018-09-04T02:57:20.864Z,101168.81
2018-09-04T02:57:58.884Z,101165.56
2018-09-04T02:58:36.987Z,101171.22
2018-09-04T02:59:15.126Z,101169.88
2018-09-04T02:59:53.101Z,101173.91
2018-09-04T03:00:31.240Z,101168.52
2018-09-04T03:01:09.208Z,101172.29
2018-09-04T03:01:47.512Z,101172.02
2018-09-04T03:02:25.654Z,101176.33
2018-09-04T03:03:03.603Z,101176.07
2018-09-04T03:03:41.688Z,101176.86
2018-09-04T03:04:19.811Z,101179.55
2018-09-04T03:04:57.861Z,101176.30
2018-09-04T03:05:35.970Z,101179.52
2018-09-04T03:06:14.226Z,101179.52
2018-09-04T03:06:53.494Z,101171.69
2018-09-04T03:07:31.612Z,101181.70
2018-09-04T03:08:09.788Z,101184.66
2018-09-04T03:08:47.886Z,101184.92
2018-09-04T03:09:45.565Z,101186.52
2018-09-04T03:10:23.543Z,101184.89
2018-09-04T03:11:01.617Z,101184.89
2018-09-04T03:11:39.638Z,101178.71
2018-09-04T03:12:17.674Z,101180.59
2018-09-04T03:12:55.730Z,101187.05
2018-09-04T03:13:33.837Z,101179.48
2018-09-04T03:14:11.898Z,101179.48
2018-09-04T03:14:50.007Z,101182.70
2018-09-04T03:16:03.796Z,101184.34
2018-09-04T03:16:41.889Z,101182.71
2018-09-04T03:17:19.838Z,101176.78
2018-09-04T03:18:02.286Z,101183.50
2018-09-04T03:18:40.224Z,101184.30
2018-09-04T03:19:18.203Z,101185.09
2018-09-04T03:19:56.332Z,101189.66
2018-09-04T03:21:30.289Z,101183.70
2018-09-04T03:22:15.880Z,101185.32
2018-09-04T03:22:54.136Z,101192.61
2018-09-04T03:23:31.993Z,101192.89
2018-09-04T03:24:10.069Z,101190.19
2018-09-04T03:24:48.985Z,101188.30
2018-09-04T03:25:27.040Z,101185.87
2018-09-04T03:26:05.113Z,101191.02
2018-09-04T03:26:43.456Z,101182.39
2018-09-04T03:27:21.597Z,101184.83
2018-09-04T03:27:59.668Z,101186.17
2018-09-04T03:28:42.929Z,101187.81
2018-09-04T03:29:20.964Z,101180.02
2018-09-04T03:29:58.901Z,101177.05
2018-09-04T03:30:36.925Z,101182.70
2018-09-04T03:31:16.467Z,101177.31
2018-09-04T03:31:54.547Z,101178.12
2018-09-04T03:32:32.625Z,101172.18
2018-09-04T03:33:10.401Z,101180.29
2018-09-04T03:33:48.747Z,101178.69
2018-09-04T03:34:26.854Z,101175.46
2018-09-04T03:35:04.833Z,101173.05
2018-09-04T03:35:42.980Z,101171.97
2018-09-04T03:36:20.929Z,101171.70
2018-09-04T03:36:58.939Z,101170.07
2018-09-04T03:37:36.971Z,101175.47
2018-09-04T03:38:15.017Z,101174.13
2018-09-04T03:38:53.064Z,101172.51
2018-09-04T03:39:31.650Z,101186.27
2018-09-04T03:40:09.669Z,101176.03
2018-09-04T03:40:47.941Z,101177.09
2018-09-04T03:41:26.105Z,101175.48
2018-09-04T03:42:04.052Z,101172.78
2018-09-04T03:42:42.131Z,101174.40
2018-09-04T03:43:20.197Z,101172.52
2018-09-04T03:43:58.461Z,101173.59
2018-09-04T03:44:36.469Z,101171.96
2018-09-04T03:45:14.471Z,101175.47
2018-09-04T03:45:52.384Z,101173.31
2018-09-04T03:46:30.472Z,101170.62
2018-09-04T03:47:09.072Z,101173.02
2018-09-04T03:47:57.433Z,101172.77
2018-09-04T03:48:35.561Z,101171.67
2018-09-04T03:49:13.530Z,101167.08
2018-09-04T03:49:51.545Z,101169.78
2018-09-04T03:50:29.622Z,101163.04
2018-09-04T03:51:07.751Z,101159.53
2018-09-04T03:51:45.849Z,101157.92
2018-09-04T03:52:23.925Z,101160.62
2018-09-04T03:53:02.286Z,101160.33
2018-09-04T03:53:40.242Z,101160.34
2018-09-04T03:54:18.211Z,101155.48
2018-09-04T03:54:56.298Z,101155.50
2018-09-04T03:55:34.295Z,101155.23
2018-09-04T03:56:12.228Z,101160.33
2018-09-04T03:56:50.152Z,101152.50
2018-09-04T03:57:28.820Z,101155.73
2018-09-04T03:58:06.784Z,101160.03
2018-09-04T03:58:44.734Z,101156.00
2018-09-04T03:59:22.825Z,101152.77
2018-09-04T04:00:00.968Z,101157.60
2018-09-04T04:00:38.941Z,101152.75
2018-09-04T04:01:17.015Z,101154.88
2018-09-04T04:01:55.085Z,101154.34
2018-09-04T04:02:33.067Z,101156.52
2018-09-04T04:03:11.160Z,101154.08
2018-09-04T04:03:49.295Z,101161.91
2018-09-04T04:04:27.575Z,101154.91
2018-09-04T04:05:05.699Z,101157.05
2018-09-04T04:05:43.627Z,101156.48
2018-09-04T04:06:21.845Z,101157.02
2018-09-04T04:06:59.922Z,101154.02
2018-09-04T04:07:37.837Z,101154.02
2018-09-04T04:08:16.586Z,101153.72
2018-09-04T04:08:54.811Z,101155.59
2018-09-04T04:09:33.685Z,101155.03
2018-09-04T04:10:11.732Z,101157.45
2018-09-04T04:10:49.923Z,101153.66
2018-09-04T04:11:28.237Z,101157.12
2018-09-04T04:12:07.520Z,101157.39
2018-09-04T04:12:45.582Z,101156.06
2018-09-04T04:13:23.789Z,101154.42
2018-09-04T04:14:01.779Z,101156.28
2018-09-04T04:14:39.833Z,101160.90
2018-09-04T04:15:17.773Z,101151.99
2018-09-04T04:15:55.779Z,101154.69
2018-09-04T04:16:33.784Z,101154.94
2018-09-04T04:17:12.157Z,101162.21
2018-09-04T04:17:50.357Z,101158.72
2018-09-04T04:18:28.427Z,101157.33
2018-09-04T04:19:06.365Z,101155.45
2018-09-04T04:19:44.481Z,101158.92
2018-09-04T04:20:22.589Z,101154.59
2018-09-04T04:21:01.752Z,101155.87
2018-09-04T04:21:39.671Z,101152.00
2018-09-04T04:22:17.732Z,101161.94
2018-09-04T04:22:55.680Z,101158.84
2018-09-04T04:23:33.685Z,101167.48
2018-09-04T04:24:11.628Z,101160.20
2018-09-04T04:24:49.913Z,101162.89
2018-09-04T04:25:28.081Z,101149.98
2018-09-04T04:26:06.759Z,101163.26
2018-09-04T04:26:44.790Z,101164.92
2018-09-04T04:27:22.766Z,101155.98
2018-09-04T04:28:00.791Z,101159.52
2018-09-04T04:28:38.992Z,101161.41
2018-09-04T04:29:17.125Z,101158.71
2018-09-04T04:29:55.244Z,101165.18
2018-09-04T04:30:33.258Z,101156.81
2018-09-04T04:31:11.208Z,101150.31
2018-09-04T04:31:49.196Z,101150.34
2018-09-04T04:32:27.981Z,101155.17
2018-09-04T04:33:06.934Z,101150.06
2018-09-04T04:33:45.045Z,101140.12
2018-09-04T04:34:23.378Z,101142.23
2018-09-04T04:35:01.418Z,101144.63
2018-09-04T04:35:39.769Z,101140.05
2018-09-04T04:36:17.822Z,101137.90
2018-09-04T04:36:55.965Z,101137.30
2018-09-04T04:37:33.981Z,101134.05
2018-09-04T04:38:12.084Z,101133.02
2018-09-04T04:38:50.057Z,101130.27
2018-09-04T04:39:29.010Z,101129.69
2018-09-04T04:40:08.724Z,101128.56
2018-09-04T04:40:46.770Z,101129.95
2018-09-04T04:41:24.977Z,101127.50
2018-09-04T04:42:02.920Z,101121.55
2018-09-04T04:42:40.899Z,101127.17
2018-09-04T04:43:19.034Z,101133.38
2018-09-04T04:43:57.274Z,101131.77
2018-09-04T04:44:35.297Z,101127.14
2018-09-04T04:45:13.728Z,101127.31
2018-09-04T04:45:51.823Z,101128.66
2018-09-04T04:46:30.782Z,101125.93
2018-09-04T04:47:08.898Z,101121.36
2018-09-04T04:47:50.167Z,101125.09
2018-09-04T04:48:28.208Z,101117.76
2018-09-04T04:49:06.339Z,101118.21
2018-09-04T04:49:44.442Z,101119.02
2018-09-04T04:50:22.630Z,101122.69
2018-09-04T04:51:00.625Z,101125.91
2018-09-04T04:51:38.884Z,101122.42
2018-09-04T04:52:17.029Z,101120.45
2018-09-04T04:52:55.100Z,101117.17
2018-09-04T04:53:33.303Z,101131.69
2018-09-04T04:54:11.269Z,101118.41
2018-09-04T04:54:49.226Z,101124.81
2018-09-04T04:55:27.228Z,101122.80
2018-09-04T04:56:07.063Z,101110.22
2018-09-04T04:56:45.100Z,101111.48
2018-09-04T04:57:23.418Z,101109.37
2018-09-04T04:58:01.692Z,101105.78
2018-09-04T04:58:39.656Z,101107.56
2018-09-04T04:59:17.824Z,101111.83
2018-09-04T04:59:56.261Z,101114.99
2018-09-04T05:00:34.334Z,101108.91
2018-09-04T05:01:16.866Z,101121.16
2018-09-04T05:01:54.982Z,101114.00
2018-09-04T05:02:33.019Z,101106.03
2018-09-04T05:03:11.067Z,101108.15
2018-09-04T05:03:49.045Z,101111.30
2018-09-04T05:04:30.347Z,101105.82
2018-09-04T05:05:08.640Z,101104.87
2018-09-04T05:05:46.610Z,101093.19
2018-09-04T05:06:24.637Z,101093.38
2018-09-04T05:07:02.543Z,101090.73
2018-09-04T05:07:40.553Z,101092.70
2018-09-04T05:08:18.559Z,101086.31
2018-09-04T05:08:56.619Z,101095.89
2018-09-04T05:09:34.726Z,101080.80
2018-09-04T05:10:12.640Z,101077.54
2018-09-04T05:10:51.376Z,101078.28
2018-09-04T05:11:29.704Z,101072.01
2018-09-04T05:12:07.798Z,101074.47
2018-09-04T05:12:45.837Z,101063.72
2018-09-04T05:13:24.145Z,101062.61
2018-09-04T05:14:01.964Z,101059.38
2018-09-04T05:14:40.836Z,101058.88
2018-09-04T05:15:18.754Z,101056.67
2018-09-04T05:15:56.810Z,101054.49
2018-09-04T05:16:35.006Z,101057.17
2018-09-04T05:17:12.937Z,101050.64
2018-09-04T05:17:51.166Z,101053.72
2018-09-04T05:18:29.089Z,101041.67
2018-09-04T05:19:07.074Z,101046.31
2018-09-04T05:19:45.224Z,101046.20
2018-09-04T05:20:25.782Z,101039.70
2018-09-04T05:21:03.777Z,101042.13
2018-09-04T05:21:41.761Z,101042.61
2018-09-04T05:22:19.938Z,101047.05
2018-09-04T05:22:57.985Z,101049.76
2018-09-04T05:23:35.977Z,101048.20
2018-09-04T05:24:13.949Z,101046.48
2018-09-04T05:24:52.773Z,101049.19
2018-09-04T05:25:30.797Z,101053.10
2018-09-04T05:26:08.909Z,101055.38
2018-09-04T05:26:46.801Z,101053.33
2018-09-04T05:27:24.804Z,101054.21
2018-09-04T05:28:02.815Z,101048.48
2018-09-04T05:28:40.786Z,101046.52
2018-09-04T05:29:18.782Z,101045.55
2018-09-04T05:29:56.658Z,101040.23
2018-09-04T05:30:34.696Z,101042.39
2018-09-04T05:31:13.634Z,101033.25
2018-09-04T05:32:11.322Z,101034.80
2018-09-04T05:32:53.386Z,101031.67
2018-09-04T05:33:46.029Z,101032.31
2018-09-04T05:34:25.865Z,101033.28
2018-09-04T05:35:03.899Z,101031.46
2018-09-04T05:35:47.268Z,101026.90
2018-09-04T05:36:25.282Z,101030.82
2018-09-04T05:37:03.231Z,101026.87
2018-09-04T05:37:42.629Z,101024.04
2018-09-04T05:38:21.562Z,101017.34
2018-09-04T05:38:59.570Z,101021.15
2018-09-04T05:39:37.744Z,101021.77
2018-09-04T05:40:16.740Z,101024.91
2018-09-04T05:40:54.839Z,101016.83
2018-09-04T05:41:32.870Z,101018.53
2018-09-04T05:42:14.981Z,101022.63
2018-09-04T05:42:59.525Z,101017.54
2018-09-04T05:43:45.504Z,101017.80
2018-09-04T05:44:23.457Z,101021.14
2018-09-04T05:45:01.439Z,101016.05
2018-09-04T05:45:40.701Z,101013.98
2018-09-04T05:46:23.530Z,101025.66
2018-09-04T05:47:01.826Z,101007.09
2018-09-04T05:47:41.518Z,101018.93
2018-09-04T05:48:19.789Z,101012.48
2018-09-04T05:48:58.811Z,101023.01
2018-09-04T05:49:37.415Z,101019.76
2018-09-04T05:50:15.669Z,101012.63
2018-09-04T05:50:53.673Z,101019.11
2018-09-04T05:51:31.737Z,101011.02
2018-09-04T05:52:09.768Z,101016.18
2018-09-04T05:52:47.825Z,101019.96
2018-09-04T05:53:25.761Z,101012.43
2018-09-04T05:54:03.769Z,101013.75
2018-09-04T05:54:43.609Z,101015.70
2018-09-04T05:55:24.092Z,101013.05
2018-09-04T05:56:02.556Z,101018.76
2018-09-04T05:56:40.456Z,101020.11
2018-09-04T05:57:18.726Z,101015.53
2018-09-04T05:57:56.734Z,101010.97
2018-09-04T05:58:34.835Z,101019.08
2018-09-04T05:59:12.827Z,101009.94
2018-09-04T05:59:50.853Z,101011.61
2018-09-04T06:00:32.914Z,101008.94
2018-09-04T06:01:11.865Z,101008.41
2018-09-04T06:01:50.118Z,101009.22
2018-09-04T06:02:28.555Z,101008.41
2018-09-04T06:03:06.552Z,101013.28
2018-09-04T06:03:44.572Z,101004.68
2018-09-04T06:04:22.591Z,101012.77
2018-09-04T06:05:00.576Z,101003.08
2018-09-04T06:05:38.528Z,100999.84
2018-09-04T06:06:16.717Z,101001.20
2018-09-04T06:06:54.605Z,100996.08
2018-09-04T06:07:32.753Z,100995.28
2018-09-04T06:08:10.737Z,100991.76
2018-09-04T06:08:48.712Z,100997.39
2018-09-04T06:09:26.767Z,100996.02
2018-09-04T06:10:04.769Z,100988.72
2018-09-04T06:10:42.724Z,100994.66
2018-09-04T06:11:20.761Z,100985.48
2018-09-04T06:11:58.767Z,100987.88
2018-09-04T06:12:36.755Z,100987.00
2018-09-04T06:13:15.120Z,100986.95
2018-09-04T06:13:53.085Z,100983.69
2018-09-04T06:14:31.035Z,100981.53
2018-09-04T06:15:09.141Z,100984.75
2018-09-04T06:15:47.095Z,100977.48
2018-09-04T06:16:25.132Z,100978.73
2018-09-04T06:17:03.204Z,100978.45
2018-09-04T06:17:41.430Z,100985.94
2018-09-04T06:18:19.531Z,100980.73
2018-09-04T06:18:57.498Z,100978.23
2018-09-04T06:19:35.597Z,100979.73
2018-09-04T06:20:13.746Z,100985.33
2018-09-04T06:20:51.774Z,100988.52
2018-09-04T06:21:29.686Z,100981.98
2018-09-04T06:22:07.647Z,100977.07
2018-09-04T06:22:45.871Z,100987.20
2018-09-04T06:23:24.676Z,100977.95
2018-09-04T06:24:02.672Z,100976.53
2018-09-04T06:24:40.729Z,100980.52
2018-09-04T06:25:19.604Z,100974.27
2018-09-04T06:25:57.646Z,100969.52
2018-09-04T06:26:35.756Z,100975.15
2018-09-04T06:27:13.932Z,100973.06
2018-09-04T06:27:52.307Z,100969.52
2018-09-04T06:28:30.432Z,100974.41
2018-09-04T06:29:08.582Z,100959.91
2018-09-04T06:29:46.566Z,100966.41
2018-09-04T06:30:24.588Z,100972.37
2018-09-04T06:31:02.654Z,100975.66
2018-09-04T06:31:40.626Z,100971.60
2018-09-04T06:32:18.638Z,100963.88
2018-09-04T06:32:56.691Z,100966.88
2018-09-04T06:33:34.874Z,100968.48
2018-09-04T06:34:13.044Z,100963.44
2018-09-04T06:34:51.162Z,100958.77
2018-09-04T06:35:29.476Z,100952.91
2018-09-04T06:36:07.569Z,100949.64
2018-09-04T06:36:45.662Z,100952.84
2018-09-04T06:37:23.905Z,100949.37
2018-09-04T06:38:01.854Z,100950.18
2018-09-04T06:38:39.905Z,100956.97
2018-09-04T06:39:17.944Z,100953.23
2018-09-04T06:39:56.249Z,100961.34
2018-09-04T06:40:34.246Z,100949.67
2018-09-04T06:41:12.221Z,100953.66
2018-09-04T06:41:50.219Z,100946.36
2018-09-04T06:42:28.221Z,100951.72
2018-09-04T06:43:06.211Z,100949.25
2018-09-04T06:43:44.257Z,100955.45
2018-09-04T06:44:22.390Z,100945.64
2018-09-04T06:45:00.509Z,100942.39
2018-09-04T06:45:38.997Z,100947.17
2018-09-04T06:46:17.061Z,100940.66
2018-09-04T06:46:55.073Z,100942.48
2018-09-04T06:47:32.981Z,100939.27
2018-09-04T06:48:11.112Z,100941.44
2018-09-04T06:48:49.071Z,100950.78
2018-09-04T06:49:26.952Z,100949.25
2018-09-04T06:50:05.301Z,100944.02
2018-09-04T06:50:43.860Z,100942.81
2018-09-04T06:51:22.065Z,100944.41
2018-09-04T06:51:59.978Z,100943.95
2018-09-04T06:52:38.157Z,100941.47
2018-09-04T06:53:16.176Z,100951.65
2018-09-04T06:53:54.246Z,100942.44
2018-09-04T06:54:32.894Z,100944.55
2018-09-04T06:55:10.915Z,100946.59
2018-09-04T06:55:48.844Z,100940.33
2018-09-04T06:56:26.801Z,100933.52
2018-09-04T06:57:04.729Z,100934.99
2018-09-04T06:57:42.997Z,100939.86
2018-09-04T06:58:20.937Z,100940.74
2018-09-04T06:58:58.876Z,100939.64
2018-09-04T06:59:36.851Z,100935.71
2018-09-04T07:00:16.819Z,100944.28
2018-09-04T07:00:54.803Z,100940.30
2018-09-04T07:01:33.084Z,100950.23
2018-09-04T07:02:11.148Z,100948.77
2018-09-04T07:02:49.118Z,100943.61
2018-09-04T07:03:27.132Z,100944.46
2018-09-04T07:04:05.049Z,100951.82
2018-09-04T07:04:43.113Z,100949.37
2018-09-04T07:05:21.097Z,100945.97
2018-09-04T07:05:59.132Z,100946.22
2018-09-04T07:06:37.372Z,100947.52
2018-09-04T07:07:15.697Z,100947.17
2018-09-04T07:07:53.887Z,100949.56
2018-09-04T07:08:31.931Z,100940.98
2018-09-04T07:09:13.733Z,100939.84
2018-09-04T07:09:51.754Z,100948.37
2018-09-04T07:10:29.700Z,100938.52
2018-09-04T07:11:07.710Z,100938.16
2018-09-04T07:11:46.727Z,100940.67
2018-09-04T07:12:24.734Z,100937.61
2018-09-04T07:13:02.961Z,100946.28
2018-09-04T07:13:40.938Z,100945.18
2018-09-04T07:14:18.913Z,100946.09
2018-09-04T07:14:57.139Z,100941.39
2018-09-04T07:15:35.121Z,100933.11
2018-09-04T07:16:13.215Z,100929.05
2018-09-04T07:16:51.194Z,100923.48
2018-09-04T07:17:29.153Z,100927.00
2018-09-04T07:18:07.358Z,100923.91
2018-09-04T07:18:45.508Z,100922.75
2018-09-04T07:19:23.603Z,100919.59
2018-09-04T07:20:06.079Z,100913.62
2018-09-04T07:20:44.126Z,100919.09